createdAt,value
2023-03-04T00:02:08.428Z,14.63
2023-03-04T00:04:45.023Z,14.70
2023-03-04T00:07:16.064Z,11.80
2023-03-04T00:09:49.537Z,14.95
2023-03-04T00:12:31.543Z,13.30
2023-03-04T00:14:59.357Z,14.48
2023-03-04T00:17:26.404Z,14.40
2023-03-04T00:20:04.819Z,14.23
2023-03-04T00:22:47.992Z,15.32
2023-03-04T00:25:25.303Z,15.00
2023-03-04T00:28:01.907Z,12.95
2023-03-04T00:30:32.139Z,15.90
2023-03-04T00:33:03.687Z,13.75
2023-03-04T00:35:33.245Z,16.42
2023-03-04T00:38:08.076Z,15.27
2023-03-04T00:40:48.675Z,15.40
2023-03-04T00:43:15.753Z,15.45
2023-03-04T00:45:53.382Z,15.68
2023-03-04T00:48:34.534Z,15.27
2023-03-04T00:51:13.970Z,15.68
2023-03-04T00:53:41.537Z,16.20
2023-03-04T00:56:19.546Z,15.68
2023-03-04T00:58:48.792Z,16.58
2023-03-04T01:01:24.033Z,16.85
2023-03-04T01:04:01.771Z,17.13
2023-03-04T01:06:31.265Z,17.38
2023-03-04T01:09:06.266Z,17.10
2023-03-04T01:11:49.319Z,16.30
2023-03-04T01:14:29.659Z,16.85
2023-03-04T01:17:09.582Z,17.40
2023-03-04T01:19:52.380Z,18.10
2023-03-04T01:22:35.186Z,17.77
2023-03-04T01:25:06.941Z,17.52
2023-03-04T01:27:43.611Z,18.40
2023-03-04T01:30:26.351Z,17.88
2023-03-04T01:33:01.853Z,18.27
2023-03-04T01:35:39.541Z,17.90
2023-03-04T01:38:15.367Z,15.07
2023-03-04T01:40:49.832Z,17.60
2023-03-04T01:43:31.950Z,18.77
2023-03-04T01:48:48.468Z,17.77
2023-03-04T01:51:17.827Z,18.38
2023-03-04T01:53:45.914Z,18.00
2023-03-04T01:56:22.171Z,17.95
2023-03-04T01:59:14.125Z,18.30
2023-03-04T02:01:47.895Z,18.70
2023-03-04T02:04:16.685Z,19.35
2023-03-04T02:06:46.952Z,19.80
2023-03-04T02:09:17.633Z,17.70
2023-03-04T02:11:45.615Z,18.48
2023-03-04T02:14:13.132Z,19.02
2023-03-04T02:16:40.136Z,18.73
2023-03-04T02:19:28.932Z,19.98
2023-03-04T02:21:58.141Z,19.00
2023-03-04T02:25:05.257Z,20.20
2023-03-04T02:27:31.834Z,18.35
2023-03-04T02:30:06.437Z,17.55
2023-03-04T02:32:48.089Z,19.27
2023-03-04T02:35:24.572Z,18.65
2023-03-04T02:37:56.994Z,17.52
2023-03-04T02:43:13.899Z,18.60
2023-03-04T02:45:42.986Z,20.67
2023-03-04T02:48:10.714Z,18.80
2023-03-04T02:50:42.772Z,19.70
2023-03-04T02:55:43.068Z,18.75
2023-03-04T02:58:14.019Z,19.05
2023-03-04T03:00:48.509Z,18.33
2023-03-04T03:03:21.602Z,19.73
2023-03-04T03:05:56.448Z,19.48
2023-03-04T03:08:43.844Z,20.20
2023-03-04T03:11:19.395Z,20.23
2023-03-04T03:13:46.071Z,20.02
2023-03-04T03:16:19.273Z,20.00
2023-03-04T03:18:52.397Z,20.48
2023-03-04T03:21:23.539Z,18.48
2023-03-04T03:23:50.387Z,20.13
2023-03-04T03:26:20.379Z,18.92
2023-03-04T03:28:49.818Z,19.05
2023-03-04T03:31:29.660Z,18.38
2023-03-04T03:33:56.392Z,19.23
2023-03-04T03:36:23.030Z,18.05
2023-03-04T03:38:49.778Z,18.08
2023-03-04T03:41:19.180Z,19.02
2023-03-04T03:43:56.406Z,17.50
2023-03-04T03:46:30.768Z,18.52
2023-03-04T03:48:57.472Z,18.25
2023-03-04T03:51:33.185Z,19.38
2023-03-04T03:53:59.770Z,19.25
2023-03-04T03:56:31.956Z,19.35
2023-03-04T03:59:07.547Z,19.50
2023-03-04T04:01:37.171Z,20.17
2023-03-04T04:04:06.084Z,19.70
2023-03-04T04:06:32.689Z,18.65
2023-03-04T04:08:59.395Z,20.02
2023-03-04T04:11:26.028Z,18.42
2023-03-04T04:13:52.665Z,18.83
2023-03-04T04:16:22.341Z,20.63
2023-03-04T04:18:48.945Z,17.90
2023-03-04T04:21:15.728Z,18.80
2023-03-04T04:23:48.540Z,18.90
2023-03-04T04:26:20.774Z,18.45
2023-03-04T04:28:57.378Z,20.30
2023-03-04T04:31:30.121Z,19.55
2023-03-04T04:33:56.672Z,17.98
2023-03-04T04:36:23.263Z,20.58
2023-03-04T04:39:03.905Z,17.73
2023-03-04T04:41:51.268Z,20.40
2023-03-04T04:44:17.839Z,19.95
2023-03-04T04:46:44.453Z,20.77
2023-03-04T04:49:14.225Z,20.13
2023-03-04T04:51:53.824Z,20.08
2023-03-04T04:54:20.511Z,20.33
2023-03-04T04:56:47.054Z,21.05
2023-03-04T04:59:13.782Z,20.80
2023-03-04T05:01:40.409Z,20.10
2023-03-04T05:04:07.289Z,21.10
2023-03-04T05:06:33.908Z,20.40
2023-03-04T05:09:00.513Z,21.95
2023-03-04T05:11:35.249Z,20.48
2023-03-04T05:14:01.859Z,21.50
2023-03-04T05:16:28.452Z,21.58
2023-03-04T05:18:55.107Z,20.75
2023-03-04T05:21:21.685Z,22.10
2023-03-04T05:23:48.283Z,21.77
2023-03-04T05:26:17.542Z,19.77
2023-03-04T05:28:46.776Z,21.00
2023-03-04T05:31:19.108Z,21.50
2023-03-04T05:33:45.759Z,21.75
2023-03-04T05:36:14.744Z,21.45
2023-03-04T05:38:41.409Z,21.73
2023-03-04T05:41:08.203Z,22.05
2023-03-04T05:43:35.770Z,21.17
2023-03-04T05:46:05.961Z,22.15
2023-03-04T05:48:32.577Z,22.48
2023-03-04T05:51:01.228Z,20.92
2023-03-04T05:53:28.893Z,21.55
2023-03-04T05:55:55.854Z,21.88
2023-03-04T05:58:22.618Z,21.77
2023-03-04T06:00:49.239Z,22.02
2023-03-04T06:03:20.692Z,21.52
2023-03-04T06:05:47.816Z,23.48
2023-03-04T06:08:14.414Z,22.70
2023-03-04T06:10:41.692Z,23.05
2023-03-04T06:13:09.260Z,22.80
2023-03-04T06:15:39.008Z,22.00
2023-03-04T06:18:07.364Z,22.70
2023-03-04T06:20:34.007Z,22.88
2023-03-04T06:23:07.059Z,23.60
2023-03-04T06:25:37.744Z,23.08
2023-03-04T06:28:04.404Z,23.95
2023-03-04T06:30:31.080Z,21.77
2023-03-04T06:33:06.872Z,22.50
2023-03-04T06:35:34.417Z,23.02
2023-03-04T06:38:03.037Z,22.10
2023-03-04T06:40:29.854Z,18.67
2023-03-04T06:43:05.113Z,22.25
2023-03-04T06:45:31.647Z,22.92
2023-03-04T06:47:58.232Z,20.45
2023-03-04T06:50:24.861Z,22.08
2023-03-04T06:52:59.802Z,23.30
2023-03-04T06:55:26.532Z,22.98
2023-03-04T06:58:00.728Z,19.05
2023-03-04T07:00:27.336Z,20.85
2023-03-04T07:02:58.002Z,18.27
2023-03-04T07:05:27.089Z,21.05
2023-03-04T07:07:53.664Z,21.13
2023-03-04T07:10:26.811Z,20.30
2023-03-04T07:12:56.297Z,20.17
2023-03-04T07:15:27.860Z,21.13
2023-03-04T07:18:04.185Z,21.00
2023-03-04T07:20:31.885Z,20.88
2023-03-04T07:22:58.555Z,20.17
2023-03-04T07:25:25.136Z,19.73
2023-03-04T07:27:51.784Z,19.00
2023-03-04T07:30:18.443Z,20.63
2023-03-04T07:32:45.106Z,20.60
2023-03-04T07:35:21.661Z,21.60
2023-03-04T07:37:51.890Z,18.58
2023-03-04T07:40:27.110Z,20.10
2023-03-04T07:43:02.884Z,21.38
2023-03-04T07:45:35.987Z,20.25
2023-03-04T07:48:11.600Z,19.20
2023-03-04T07:50:46.409Z,19.85
2023-03-04T07:53:13.072Z,20.13
2023-03-04T07:55:39.877Z,20.05
2023-03-04T07:58:17.155Z,20.95
2023-03-04T08:00:52.916Z,20.13
2023-03-04T08:03:22.219Z,18.58
2023-03-04T08:05:49.007Z,21.83
2023-03-04T08:08:38.027Z,21.50
2023-03-04T08:11:12.946Z,21.15
2023-03-04T08:13:42.416Z,19.20
2023-03-04T08:16:17.897Z,23.05
2023-03-04T08:18:56.730Z,19.60
2023-03-04T08:24:13.700Z,20.30
2023-03-04T08:26:45.516Z,21.27
2023-03-04T08:29:18.169Z,19.90
2023-03-04T08:31:46.894Z,21.17
2023-03-04T08:34:22.976Z,21.48
2023-03-04T08:37:00.097Z,21.35
2023-03-04T08:39:26.846Z,21.92
2023-03-04T08:41:53.610Z,20.55
2023-03-04T08:44:26.770Z,19.92
2023-03-04T08:47:01.969Z,21.38
2023-03-04T08:49:28.571Z,21.70
2023-03-04T08:51:58.495Z,20.20
2023-03-04T08:54:25.090Z,20.48
2023-03-04T08:57:00.258Z,21.23
2023-03-04T08:59:38.176Z,20.67
2023-03-04T09:02:05.082Z,19.27
2023-03-04T09:04:33.866Z,21.90
2023-03-04T09:07:00.511Z,20.13
2023-03-04T09:09:36.443Z,19.42
2023-03-04T09:12:04.151Z,20.20
2023-03-04T09:14:30.910Z,22.63
2023-03-04T09:16:58.613Z,20.92
2023-03-04T09:19:25.259Z,22.30
2023-03-04T09:21:51.915Z,20.40
2023-03-04T09:24:18.533Z,20.92
2023-03-04T09:26:45.151Z,20.40
2023-03-04T09:29:11.745Z,19.27
2023-03-04T09:31:38.541Z,20.05
2023-03-04T09:34:07.728Z,19.20
2023-03-04T09:36:34.357Z,19.75
2023-03-04T09:39:05.654Z,19.02
2023-03-04T09:42:09.777Z,18.95
2023-03-04T09:44:48.685Z,18.55
2023-03-04T09:47:29.874Z,18.85
2023-03-04T09:50:05.571Z,19.60
2023-03-04T09:52:46.622Z,19.15
2023-03-04T09:55:26.418Z,17.48
2023-03-04T09:58:19.538Z,17.85
2023-03-04T10:00:59.911Z,17.60
2023-03-04T10:03:50.714Z,16.58
2023-03-04T10:06:19.649Z,16.00
2023-03-04T10:09:26.071Z,17.05
2023-03-04T10:12:12.230Z,17.08
2023-03-04T10:14:46.141Z,17.30
2023-03-04T10:17:22.784Z,16.10
2023-03-04T10:20:08.393Z,13.05
2023-03-04T10:22:48.394Z,11.27
2023-03-04T10:25:19.468Z,14.80
2023-03-04T10:27:56.483Z,14.98
2023-03-04T10:30:46.196Z,12.90
2023-03-04T10:33:18.685Z,14.00
2023-03-04T10:35:56.786Z,13.70
2023-03-04T10:38:23.827Z,16.23
2023-03-04T10:40:50.524Z,14.68
2023-03-04T10:43:24.013Z,15.43
2023-03-04T10:46:04.132Z,14.68
2023-03-04T10:48:32.573Z,16.83
2023-03-04T10:51:25.927Z,15.50
2023-03-04T10:54:18.352Z,15.05
2023-03-04T10:59:40.284Z,14.98
2023-03-04T11:02:29.886Z,14.60
2023-03-04T11:05:14.872Z,16.17
2023-03-04T11:07:55.649Z,15.35
2023-03-04T11:10:23.437Z,15.10
2023-03-04T11:13:01.180Z,15.80
2023-03-04T11:15:31.330Z,17.20
2023-03-04T11:18:02.730Z,14.70
2023-03-04T11:20:36.474Z,15.32
2023-03-04T11:23:37.151Z,17.08
2023-03-04T11:26:18.925Z,20.30
2023-03-04T11:28:55.441Z,17.38
2023-03-04T11:31:29.489Z,15.55
2023-03-04T11:34:04.984Z,17.17
2023-03-04T11:37:00.404Z,15.73
2023-03-04T11:39:41.913Z,15.45
2023-03-04T11:42:24.360Z,14.10
2023-03-04T11:44:53.721Z,15.35
2023-03-04T11:47:40.133Z,14.82
2023-03-04T11:50:37.750Z,14.20
2023-03-04T11:53:37.756Z,14.65
2023-03-04T11:56:18.459Z,15.55
2023-03-04T11:59:09.168Z,14.25
2023-03-04T12:01:50.567Z,15.70
2023-03-04T12:04:58.522Z,14.00
2023-03-04T12:07:39.150Z,13.60
2023-03-04T12:10:32.255Z,14.00
2023-03-04T12:13:17.389Z,15.18
2023-03-04T12:15:44.319Z,13.65
2023-03-04T12:18:36.231Z,13.85
2023-03-04T12:21:27.776Z,14.15
2023-03-04T12:24:22.133Z,13.60
2023-03-04T12:27:06.155Z,14.27
2023-03-04T12:29:58.484Z,13.68
2023-03-04T12:35:34.884Z,15.65
2023-03-04T12:38:29.732Z,15.85
2023-03-04T12:41:30.513Z,16.63
2023-03-04T12:44:26.099Z,13.75
2023-03-04T12:47:20.841Z,12.30
2023-03-04T12:50:16.378Z,12.13
2023-03-04T12:52:58.667Z,13.00
2023-03-04T12:55:41.736Z,14.20
2023-03-04T12:58:34.084Z,14.98
2023-03-04T13:01:25.299Z,14.85
2023-03-04T13:04:35.674Z,14.63
2023-03-04T13:07:21.958Z,14.38
2023-03-04T13:10:07.665Z,12.45
2023-03-04T13:13:01.718Z,11.82
2023-03-04T13:15:42.059Z,13.13
2023-03-04T13:18:32.468Z,12.23
2023-03-04T13:21:31.966Z,12.95
2023-03-04T13:24:23.791Z,13.52
2023-03-04T13:26:50.676Z,13.23
2023-03-04T13:29:20.017Z,13.68
2023-03-04T13:32:13.715Z,14.52
2023-03-04T13:34:52.509Z,15.80
2023-03-04T13:37:27.894Z,15.63
2023-03-04T13:40:17.264Z,16.60
2023-03-04T13:42:46.768Z,14.95
2023-03-04T13:45:38.660Z,14.05
2023-03-04T13:48:27.151Z,14.63
2023-03-04T13:50:54.248Z,15.02
2023-03-04T13:53:41.810Z,14.35
2023-03-04T13:56:37.641Z,14.43
2023-03-04T13:59:07.178Z,14.40
2023-03-04T14:02:05.280Z,13.85
2023-03-04T14:04:37.644Z,13.15
2023-03-04T14:07:37.197Z,11.90
2023-03-04T14:10:14.927Z,10.65
2023-03-04T14:12:54.461Z,11.30
2023-03-04T14:15:29.369Z,10.70
2023-03-04T14:18:05.358Z,11.30
2023-03-04T14:20:42.576Z,11.65
2023-03-04T14:23:35.802Z,10.63
2023-03-04T14:26:14.582Z,13.05
2023-03-04T14:28:59.229Z,11.18
2023-03-04T14:31:29.030Z,10.88
2023-03-04T14:33:58.568Z,9.82
2023-03-04T14:36:53.070Z,9.57
2023-03-04T14:39:25.773Z,7.35
2023-03-04T14:41:55.201Z,10.68
2023-03-04T14:44:47.008Z,10.20
2023-03-04T14:50:20.155Z,11.27
2023-03-04T14:53:03.693Z,11.23
2023-03-04T14:55:30.482Z,11.05
2023-03-04T14:58:39.390Z,11.20
2023-03-04T15:01:22.094Z,10.80
2023-03-04T15:04:06.782Z,11.93
2023-03-04T15:06:49.067Z,12.18
2023-03-04T15:09:27.387Z,11.50
2023-03-04T15:12:05.234Z,10.60
2023-03-04T15:14:49.842Z,11.48
2023-03-04T15:17:50.348Z,12.77
2023-03-04T15:20:31.854Z,13.32
2023-03-04T15:23:16.065Z,13.68
2023-03-04T15:25:42.735Z,12.98
2023-03-04T15:28:28.743Z,12.98
2023-03-04T15:31:02.285Z,13.40
2023-03-04T15:33:29.037Z,16.08
2023-03-04T15:36:05.336Z,10.68
2023-03-04T15:38:42.212Z,11.13
2023-03-04T15:41:18.260Z,11.48
2023-03-04T15:43:45.015Z,12.70
2023-03-04T15:46:28.876Z,12.43
2023-03-04T15:48:58.344Z,12.52
2023-03-04T15:51:34.667Z,12.75
2023-03-04T15:54:14.321Z,12.30
2023-03-04T15:56:46.208Z,12.55
2023-03-04T15:59:27.306Z,11.65
2023-03-04T16:02:06.599Z,11.87
2023-03-04T16:04:40.976Z,12.65
2023-03-04T16:07:16.322Z,11.52
2023-03-04T16:09:46.654Z,12.88
2023-03-04T16:12:22.276Z,12.45
2023-03-04T16:14:59.268Z,13.20
2023-03-04T16:17:26.843Z,12.27
2023-03-04T16:19:58.347Z,13.57
2023-03-04T16:22:37.845Z,12.15
2023-03-04T16:25:20.728Z,11.48
2023-03-04T16:27:54.550Z,11.90
2023-03-04T16:30:32.221Z,11.13
2023-03-04T16:33:05.178Z,10.98
2023-03-04T16:35:34.712Z,12.00
2023-03-04T16:38:09.955Z,12.35
2023-03-04T16:40:36.609Z,12.35
2023-03-04T16:43:03.576Z,11.40
2023-03-04T16:45:30.365Z,12.30
2023-03-04T16:48:04.818Z,12.63
2023-03-04T16:50:31.534Z,15.13
2023-03-04T16:53:02.993Z,12.43
2023-03-04T16:55:44.474Z,13.68
2023-03-04T16:58:11.208Z,13.27
2023-03-04T17:00:37.949Z,14.10
2023-03-04T17:03:04.708Z,14.80
2023-03-04T17:05:34.535Z,16.40
2023-03-04T17:08:01.175Z,15.75
2023-03-04T17:10:35.999Z,18.77
2023-03-04T17:13:03.723Z,15.85
2023-03-04T17:15:30.345Z,16.20
2023-03-04T17:17:59.722Z,15.10
2023-03-04T17:20:26.447Z,16.60
2023-03-04T17:22:53.900Z,16.88
2023-03-04T17:25:22.261Z,15.15
2023-03-04T17:27:57.766Z,15.23
2023-03-04T17:30:24.439Z,15.10
2023-03-04T17:32:51.075Z,16.45
2023-03-04T17:35:17.817Z,16.50
2023-03-04T17:37:50.289Z,16.55
2023-03-04T17:40:25.281Z,16.23
2023-03-04T17:43:00.232Z,17.23
2023-03-04T17:45:29.635Z,16.10
2023-03-04T17:47:58.903Z,17.80
2023-03-04T17:50:28.216Z,16.77
2023-03-04T17:52:58.894Z,16.10
2023-03-04T17:55:28.923Z,16.48
2023-03-04T17:57:55.810Z,17.75
2023-03-04T18:00:46.830Z,17.50
2023-03-04T18:03:16.217Z,18.70
2023-03-04T18:05:45.815Z,17.00
2023-03-04T18:08:18.250Z,16.42
2023-03-04T18:10:45.036Z,16.52
2023-03-04T18:13:12.386Z,16.30
2023-03-04T18:15:39.064Z,15.88
2023-03-04T18:18:06.084Z,15.25
2023-03-04T18:20:34.427Z,15.93
2023-03-04T18:23:04.108Z,15.02
2023-03-04T18:25:30.739Z,15.10
2023-03-04T18:27:57.452Z,13.27
2023-03-04T18:30:28.264Z,14.80
2023-03-04T18:33:02.315Z,14.55
2023-03-04T18:35:29.200Z,13.27
2023-03-04T18:37:58.324Z,13.02
2023-03-04T18:40:27.473Z,13.32
2023-03-04T18:42:57.125Z,12.52
2023-03-04T18:45:33.308Z,14.25
2023-03-04T18:48:02.713Z,13.07
2023-03-04T18:50:29.348Z,12.57
2023-03-04T18:52:55.952Z,13.18
2023-03-04T18:55:23.740Z,11.90
2023-03-04T18:57:57.546Z,12.52
2023-03-04T19:00:33.581Z,12.73
2023-03-04T19:03:13.019Z,13.77
2023-03-04T19:05:42.931Z,13.65
2023-03-04T19:08:19.855Z,12.90
2023-03-04T19:10:50.512Z,12.68
2023-03-04T19:13:19.145Z,12.60
2023-03-04T19:15:51.505Z,31.17
2023-03-04T19:18:18.663Z,27.70
2023-03-04T19:20:48.424Z,32.65
2023-03-04T19:23:19.507Z,30.13
2023-03-04T19:25:59.434Z,31.65
2023-03-04T19:28:26.242Z,34.75
2023-03-04T19:30:52.892Z,33.95
2023-03-04T19:33:20.026Z,32.80
2023-03-04T19:35:48.932Z,31.00
2023-03-04T19:38:15.562Z,33.20
2023-03-04T19:40:42.260Z,31.70
2023-03-04T19:43:09.290Z,24.55
2023-03-04T19:45:35.933Z,25.55
2023-03-04T19:48:02.683Z,23.70
2023-03-04T19:50:29.889Z,22.88
2023-03-04T19:52:59.134Z,19.17
2023-03-04T19:55:29.251Z,18.15
2023-03-04T19:57:59.621Z,16.75
2023-03-04T20:00:34.396Z,16.05
2023-03-04T20:03:04.099Z,16.08
2023-03-04T20:05:30.800Z,15.68
2023-03-04T20:08:00.512Z,15.70
2023-03-04T20:10:35.383Z,14.40
2023-03-04T20:13:03.586Z,14.65
2023-03-04T20:15:32.576Z,13.90
2023-03-04T20:18:05.513Z,14.10
2023-03-04T20:20:32.136Z,13.82
2023-03-04T20:23:02.459Z,14.98
2023-03-04T20:25:47.527Z,14.65
2023-03-04T20:28:14.167Z,14.20
2023-03-04T20:30:43.682Z,14.52
2023-03-04T20:33:12.859Z,13.82
2023-03-04T20:35:42.726Z,14.75
2023-03-04T20:38:09.491Z,15.00
2023-03-04T20:40:42.404Z,14.93
2023-03-04T20:46:31.482Z,16.05
2023-03-04T20:51:31.030Z,15.43
2023-03-04T20:54:12.115Z,16.85
2023-03-04T20:56:38.901Z,16.15
2023-03-04T20:59:10.154Z,14.80
2023-03-04T21:01:41.349Z,16.50
2023-03-04T21:04:08.487Z,16.00
2023-03-04T21:06:40.027Z,15.18
2023-03-04T21:09:13.508Z,15.57
2023-03-04T21:11:43.621Z,15.77
2023-03-04T21:14:33.198Z,16.50
2023-03-04T21:17:04.364Z,14.88
2023-03-04T21:19:34.244Z,15.43
2023-03-04T21:22:03.887Z,14.32
2023-03-04T21:24:40.211Z,14.32
2023-03-04T21:27:10.276Z,14.52
2023-03-04T21:29:36.906Z,13.98
2023-03-04T21:32:27.147Z,13.85
2023-03-04T21:34:55.462Z,14.88
2023-03-04T21:37:33.177Z,14.95
2023-03-04T21:40:03.845Z,13.00
2023-03-04T21:42:30.489Z,13.43
2023-03-04T21:45:08.809Z,13.10
2023-03-04T21:47:39.437Z,13.95
2023-03-04T21:50:06.337Z,13.00
2023-03-04T21:52:33.025Z,13.20
2023-03-04T21:55:01.953Z,13.02
2023-03-04T21:57:31.644Z,11.88
2023-03-04T21:59:58.285Z,11.82
2023-03-04T22:02:25.013Z,11.65
2023-03-04T22:04:51.639Z,12.05
2023-03-04T22:07:18.560Z,12.45
2023-03-04T22:09:51.378Z,12.13
2023-03-04T22:12:19.577Z,11.70
2023-03-04T22:14:49.160Z,12.30
2023-03-04T22:17:15.894Z,11.05
2023-03-04T22:19:42.723Z,11.40
2023-03-04T22:22:11.767Z,11.05
2023-03-04T22:24:41.450Z,11.60
2023-03-04T22:27:08.039Z,11.63
2023-03-04T22:29:38.160Z,11.52
2023-03-04T22:32:05.326Z,12.25
2023-03-04T22:34:45.841Z,10.82
2023-03-04T22:37:22.125Z,10.55
2023-03-04T22:42:44.648Z,11.02
2023-03-04T22:45:27.566Z,11.52
2023-03-04T22:47:54.565Z,11.27
2023-03-04T22:50:24.293Z,10.85
2023-03-04T22:53:00.060Z,11.57
2023-03-04T22:55:30.138Z,11.23
2023-03-04T22:57:56.784Z,11.57
2023-03-04T23:00:26.325Z,11.27
2023-03-04T23:02:56.338Z,11.02
2023-03-04T23:05:23.770Z,11.35
2023-03-04T23:07:53.051Z,10.85
2023-03-04T23:10:25.936Z,11.25
2023-03-04T23:13:00.415Z,11.07
2023-03-04T23:15:27.164Z,11.88
2023-03-04T23:18:03.901Z,10.98
2023-03-04T23:20:39.676Z,12.38
2023-03-04T23:23:06.279Z,10.50
2023-03-04T23:25:35.421Z,9.98
2023-03-04T23:28:10.041Z,11.70
2023-03-04T23:30:44.542Z,11.20
2023-03-04T23:33:11.145Z,11.43
2023-03-04T23:35:37.732Z,11.05
2023-03-04T23:38:06.819Z,10.98
2023-03-04T23:40:33.448Z,12.02
2023-03-04T23:43:03.068Z,11.05
2023-03-04T23:45:29.672Z,11.20
2023-03-04T23:47:56.999Z,10.93
2023-03-04T23:50:32.262Z,11.48
2023-03-04T23:53:02.767Z,11.05
2023-03-04T23:55:42.633Z,11.05
2023-03-04T23:58:09.214Z,11.30
